Fosses-la-Ville, Belgium
Current Conditions -  °F | °C
As of 12:55 AM on Saturday 29 Nov 2014 (Local Time) from EBFS Reporting Station
Few Clouds Few Clouds  
Wind Chill: 39°   Ceiling: Unl
Heat Index: 43°   Visibility: 6mi
Dew Point: 36°   Wind: 7mph
Humidity: 76%   Direction: 100°E
Pressure: 29.8"   Gusts: NA
Location:  50.4°N, 4.7°E
Report Text: EBFS 282355Z 10006KT 9999 FEW200 06/02 Q1009 BLU
Loading
Personal Weather Stations






























Interactive Weather Map New forecast layout! Learn more

10-Day Weather Forecast

Advertisements
Track Severe Weather on mobile